Terminal Aerodrome Forecast
Issued by NWS

Home | Current Version | Previous Version | Text Only | Print | Product List | Glossary On
Versions: 1 2 3 4 5 6 7 8 9 10 11 12 13
000
FTUS44 KEPZ 202328
TAFDMN
TAF
KDMN 202328Z 2100/2124 24013G21KT P6SM FEW080 BKN250
     FM210300 25018G25KT P6SM VCSH SCT040
     FM210900 26022G29KT P6SM FEW060
     FM211600 28028G36KT P6SM SKC=

USA.gov is the U.S. government's official web portal to all federal, state and local government web resources and services.